createdAt,value
2024-04-17T13:25:02.442Z,12.29
2024-04-17T13:26:01.508Z,12.01
2024-04-17T13:27:00.932Z,12.26
2024-04-17T13:28:00.931Z,12.42
2024-04-17T13:29:00.993Z,12.70
2024-04-17T13:30:01.063Z,12.99
2024-04-17T13:31:00.997Z,12.93
2024-04-17T13:32:01.055Z,12.97
2024-04-17T13:33:00.941Z,12.60
2024-04-17T13:34:00.914Z,12.54
2024-04-17T13:35:00.983Z,12.85
2024-04-17T13:36:00.911Z,12.87
2024-04-17T13:37:00.883Z,12.70
2024-04-17T13:38:00.924Z,12.37
2024-04-17T13:39:00.861Z,12.11
2024-04-17T13:40:00.889Z,11.80
2024-04-17T13:41:00.874Z,11.71
2024-04-17T13:42:00.861Z,11.65
2024-04-17T13:43:00.841Z,11.99
2024-04-17T13:44:00.880Z,12.27
2024-04-17T13:45:00.817Z,12.79
2024-04-17T13:46:00.803Z,13.14
2024-04-17T13:47:00.847Z,13.33
2024-04-17T13:48:00.923Z,13.22
2024-04-17T13:49:00.790Z,13.06
2024-04-17T13:50:01.104Z,13.14
2024-04-17T13:51:00.852Z,13.40
2024-04-17T13:52:00.883Z,13.59
2024-04-17T13:53:01.058Z,13.96
2024-04-17T13:54:00.768Z,13.96
2024-04-17T13:55:00.729Z,13.56
2024-04-17T13:56:00.860Z,13.40
2024-04-17T13:57:00.720Z,12.92
2024-04-17T13:58:02.307Z,12.67
2024-04-17T13:59:01.720Z,12.46
2024-04-17T14:00:00.743Z,12.20
2024-04-17T14:01:00.735Z,11.96
2024-04-17T14:02:00.740Z,11.59
2024-04-17T14:03:00.864Z,11.52
2024-04-17T14:04:00.708Z,11.99
2024-04-17T14:05:00.652Z,11.90
2024-04-17T14:06:01.668Z,11.87
2024-04-17T14:07:00.658Z,11.80
2024-04-17T14:08:00.648Z,11.49
2024-04-17T14:09:00.661Z,11.68
2024-04-17T14:10:00.635Z,12.04
2024-04-17T14:11:00.652Z,12.15
2024-04-17T14:12:00.627Z,12.06
2024-04-17T14:13:00.609Z,12.05
2024-04-17T14:14:00.710Z,12.11
2024-04-17T14:15:00.637Z,12.16
2024-04-17T14:16:00.578Z,12.16
2024-04-17T14:17:01.730Z,12.23
2024-04-17T14:18:00.785Z,12.27
2024-04-17T14:19:00.635Z,12.49
2024-04-17T14:20:00.555Z,12.33
2024-04-17T14:21:00.556Z,12.05
2024-04-17T14:22:00.527Z,11.77
2024-04-17T14:23:00.531Z,11.56
2024-04-17T14:24:00.520Z,11.53
2024-04-17T14:25:00.516Z,11.80
2024-04-17T14:26:00.502Z,12.05
2024-04-17T14:27:00.503Z,12.33
2024-04-17T14:28:00.570Z,12.31
2024-04-17T14:29:00.510Z,12.44
2024-04-17T14:30:00.508Z,12.56
2024-04-17T14:31:00.486Z,12.67
2024-04-17T14:32:00.472Z,12.78
2024-04-17T14:33:00.789Z,12.82
2024-04-17T14:34:00.552Z,12.78
2024-04-17T14:35:01.442Z,12.70
2024-04-17T14:36:00.439Z,12.69
2024-04-17T14:37:00.452Z,12.51
2024-04-17T14:38:00.958Z,12.42
2024-04-17T14:39:00.444Z,12.48
2024-04-17T14:40:00.568Z,12.34
2024-04-17T14:41:00.396Z,12.41
2024-04-17T14:42:00.405Z,12.37
2024-04-17T14:43:00.498Z,12.34
2024-04-17T14:44:00.928Z,12.34
2024-04-17T14:45:00.455Z,12.06
2024-04-17T14:46:00.369Z,11.77
2024-04-17T14:47:00.392Z,11.07
2024-04-17T14:48:00.455Z,10.51
2024-04-17T14:49:00.454Z,10.39
2024-04-17T14:50:00.337Z,10.07
2024-04-17T14:51:00.336Z,10.09
2024-04-17T14:52:00.321Z,10.24
2024-04-17T14:53:00.314Z,10.32
2024-04-17T14:54:00.337Z,10.34
2024-04-17T14:55:00.312Z,10.47
2024-04-17T14:56:01.390Z,10.46
2024-04-17T14:57:01.287Z,10.34
2024-04-17T14:58:00.306Z,10.52
2024-04-17T14:59:00.298Z,10.43
2024-04-17T15:00:00.414Z,10.53
2024-04-17T15:01:00.391Z,10.58
2024-04-17T15:02:00.299Z,10.37
2024-04-17T15:03:00.257Z,10.47
2024-04-17T15:04:00.375Z,10.73
2024-04-17T15:05:00.303Z,10.80
2024-04-17T15:06:00.243Z,10.96
2024-04-17T15:07:00.238Z,11.24
2024-04-17T15:08:01.139Z,11.29
2024-04-17T15:09:00.226Z,11.28
2024-04-17T15:10:00.360Z,11.50
2024-04-17T15:11:00.210Z,11.78
2024-04-17T15:12:00.191Z,11.94
2024-04-17T15:13:00.217Z,12.19
2024-04-17T15:14:00.228Z,12.33
2024-04-17T15:15:00.173Z,12.51
2024-04-17T15:16:00.166Z,12.67
2024-04-17T15:17:00.181Z,12.79
2024-04-17T15:18:00.403Z,12.89
2024-04-17T15:19:00.350Z,12.81
2024-04-17T15:20:00.350Z,12.92
2024-04-17T15:21:00.166Z,12.93
2024-04-17T15:22:00.499Z,12.70
2024-04-17T15:23:00.118Z,12.71
2024-04-17T15:24:00.236Z,12.71
2024-04-17T15:25:00.200Z,12.63
2024-04-17T15:26:00.112Z,12.45
2024-04-17T15:27:00.113Z,12.38
2024-04-17T15:28:00.084Z,12.24
2024-04-17T15:29:00.087Z,12.16
2024-04-17T15:30:00.096Z,12.08
2024-04-17T15:31:00.077Z,11.97
2024-04-17T15:32:00.162Z,11.93
2024-04-17T15:33:00.103Z,11.86
2024-04-17T15:34:00.067Z,11.72
2024-04-17T15:35:00.047Z,11.54
2024-04-17T15:36:00.049Z,11.36
2024-04-17T15:37:00.035Z,11.29
2024-04-17T15:38:00.216Z,11.27
2024-04-17T15:39:00.055Z,11.34
2024-04-17T15:40:00.059Z,11.21
2024-04-17T15:41:00.068Z,11.17
2024-04-17T15:42:00.061Z,11.19
2024-04-17T15:43:00.014Z,11.25
2024-04-17T15:43:59.994Z,11.24
2024-04-17T15:44:59.973Z,11.24
2024-04-17T15:46:00.047Z,11.29
2024-04-17T15:46:59.959Z,11.36
2024-04-17T15:48:00.007Z,11.27
2024-04-17T15:49:00.488Z,11.34
2024-04-17T15:49:59.943Z,11.20
2024-04-17T15:50:59.950Z,11.35
2024-04-17T15:51:59.933Z,11.32
2024-04-17T15:52:59.934Z,11.31
2024-04-17T15:53:59.980Z,11.35
2024-04-17T15:54:59.917Z,11.43
2024-04-17T15:55:59.911Z,11.46
2024-04-17T15:56:59.903Z,11.39
2024-04-17T15:57:59.899Z,11.44
2024-04-17T15:58:59.910Z,11.36
2024-04-17T15:59:59.919Z,11.49
2024-04-17T16:00:59.930Z,11.41
2024-04-17T16:01:59.891Z,11.53
2024-04-17T16:02:59.924Z,11.54
2024-04-17T16:03:59.935Z,11.61
2024-04-17T16:04:59.862Z,11.61
2024-04-17T16:05:59.891Z,11.61
2024-04-17T16:06:59.846Z,11.65
2024-04-17T16:07:59.859Z,11.56
2024-04-17T16:08:59.935Z,11.53
2024-04-17T16:09:59.821Z,11.52
2024-04-17T16:10:59.833Z,11.54
2024-04-17T16:11:59.820Z,11.44
2024-04-17T16:12:59.808Z,11.43
2024-04-17T16:13:59.812Z,11.46
2024-04-17T16:14:59.794Z,11.38
2024-04-17T16:15:59.887Z,11.20
2024-04-17T16:17:00.693Z,11.19
2024-04-17T16:18:00.764Z,11.20
2024-04-17T16:18:59.846Z,11.20
2024-04-17T16:19:59.780Z,11.10
2024-04-17T16:20:59.754Z,11.16
2024-04-17T16:21:59.754Z,11.01
2024-04-17T16:22:59.754Z,11.11
2024-04-17T16:23:59.736Z,11.11
2024-04-17T16:24:59.749Z,11.16
2024-04-17T16:26:00.120Z,11.10
2024-04-17T16:27:00.777Z,11.32
2024-04-17T16:27:59.735Z,11.21
2024-04-17T16:28:59.717Z,11.21
2024-04-17T16:29:59.721Z,11.29
2024-04-17T16:30:59.737Z,11.34
2024-04-17T16:31:59.872Z,11.35
2024-04-17T16:32:59.680Z,11.29
2024-04-17T16:33:59.766Z,11.28
2024-04-17T16:34:59.676Z,10.96
2024-04-17T16:35:59.690Z,10.84
2024-04-17T16:36:59.656Z,10.77
2024-04-17T16:37:59.655Z,10.66
2024-04-17T16:38:59.665Z,10.65
2024-04-17T16:39:59.643Z,10.55
2024-04-17T16:40:59.639Z,10.09
2024-04-17T16:41:59.650Z,10.01
2024-04-17T16:42:59.622Z,10.01
2024-04-17T16:43:59.627Z,10.01
2024-04-17T16:44:59.607Z,10.03
2024-04-17T16:45:59.672Z,10.07
2024-04-17T16:46:59.629Z,10.03
2024-04-17T16:48:00.232Z,10.10
2024-04-17T16:49:02.144Z,10.00
2024-04-17T16:49:59.634Z,9.97
2024-04-17T16:50:59.596Z,9.96
2024-04-17T16:51:59.641Z,9.93
2024-04-17T16:52:59.668Z,10.04
2024-04-17T16:53:59.561Z,10.00
2024-04-17T16:54:59.542Z,10.06
2024-04-17T16:55:59.546Z,10.01
2024-04-17T16:56:59.533Z,10.07
2024-04-17T16:57:59.566Z,9.99
2024-04-17T16:58:59.564Z,10.01
2024-04-17T16:59:59.516Z,10.04
2024-04-17T17:00:59.621Z,10.09
2024-04-17T17:01:59.548Z,10.06
2024-04-17T17:02:59.553Z,10.19
2024-04-17T17:03:59.556Z,10.04
2024-04-17T17:04:59.500Z,10.10
2024-04-17T17:05:59.489Z,10.04
2024-04-17T17:06:59.473Z,10.10
2024-04-17T17:08:02.629Z,10.03
2024-04-17T17:09:00.570Z,10.01
2024-04-17T17:09:59.509Z,10.15
2024-04-17T17:10:59.598Z,10.12
2024-04-17T17:11:59.563Z,10.12
2024-04-17T17:12:59.607Z,10.18
2024-04-17T17:13:59.442Z,10.14
2024-04-17T17:14:59.465Z,10.24
2024-04-17T17:15:59.434Z,10.28
2024-04-17T17:16:59.436Z,10.24
2024-04-17T17:17:59.491Z,10.32
2024-04-17T17:18:59.494Z,10.37
2024-04-17T17:19:59.501Z,10.39
2024-04-17T17:20:59.430Z,10.36
2024-04-17T17:21:59.470Z,10.40
2024-04-17T17:22:59.386Z,10.34
2024-04-17T17:23:59.372Z,10.09
2024-04-17T17:24:59.352Z,9.85
2024-04-17T17:25:59.352Z,9.53
2024-04-17T17:26:59.348Z,9.18
2024-04-17T17:27:59.346Z,9.15
2024-04-17T17:28:59.331Z,9.02
2024-04-17T17:29:59.333Z,8.68
2024-04-17T17:30:59.333Z,8.57
2024-04-17T17:31:59.331Z,8.47
2024-04-17T17:32:59.343Z,8.45
2024-04-17T17:33:59.306Z,8.44
2024-04-17T17:34:59.319Z,8.51
2024-04-17T17:35:59.313Z,8.45
2024-04-17T17:36:59.270Z,8.47
2024-04-17T17:37:59.405Z,8.39
2024-04-17T17:39:07.427Z,8.36
2024-04-17T17:40:01.396Z,8.28
2024-04-17T17:40:59.253Z,8.15
2024-04-17T17:41:59.266Z,7.96
2024-04-17T17:42:59.234Z,7.97
2024-04-17T17:43:59.231Z,7.90
2024-04-17T17:44:59.235Z,7.82
2024-04-17T17:45:59.219Z,7.77
2024-04-17T17:46:59.214Z,7.78
2024-04-17T17:47:59.263Z,7.74
2024-04-17T17:48:59.252Z,7.71
2024-04-17T17:49:59.201Z,7.74
2024-04-17T17:50:59.216Z,7.74
2024-04-17T17:51:59.176Z,7.62
2024-04-17T17:52:59.177Z,7.55
2024-04-17T17:53:59.223Z,7.58
2024-04-17T17:54:59.153Z,7.55
2024-04-17T17:55:59.146Z,7.53
2024-04-17T17:56:59.150Z,7.41
2024-04-17T17:57:59.119Z,7.47
2024-04-17T17:59:00.154Z,7.44
2024-04-17T17:59:59.158Z,7.42
2024-04-17T18:00:59.219Z,7.53
2024-04-17T18:01:59.148Z,7.44
2024-04-17T18:02:59.114Z,7.50
2024-04-17T18:03:59.205Z,7.52
2024-04-17T18:04:59.091Z,7.52
2024-04-17T18:05:59.075Z,7.52
2024-04-17T18:06:59.086Z,7.35
2024-04-17T18:07:59.071Z,7.38
2024-04-17T18:09:00.839Z,7.24
2024-04-17T18:10:00.063Z,7.20
2024-04-17T18:10:59.176Z,7.17
2024-04-17T18:11:59.732Z,7.19
2024-04-17T18:12:59.026Z,7.26
2024-04-17T18:13:59.035Z,7.29
2024-04-17T18:14:59.025Z,7.27
2024-04-17T18:16:00.640Z,7.17
2024-04-17T18:16:59.018Z,7.22
2024-04-17T18:17:59.034Z,7.32
2024-04-17T18:18:59.360Z,7.20
2024-04-17T18:19:59.001Z,7.20
2024-04-17T18:20:58.992Z,7.13
2024-04-17T18:21:58.969Z,7.23
2024-04-17T18:22:58.958Z,7.12
2024-04-17T18:23:59.300Z,7.19
2024-04-17T18:24:58.943Z,7.17
2024-04-17T18:25:58.940Z,7.23
2024-04-17T18:26:58.935Z,7.23
2024-04-17T18:27:58.944Z,7.23
2024-04-17T18:28:59.128Z,7.16
2024-04-17T18:29:58.934Z,7.02
2024-04-17T18:30:58.906Z,7.01
2024-04-17T18:31:58.910Z,7.09
2024-04-17T18:32:58.954Z,7.13
2024-04-17T18:33:59.068Z,7.16
2024-04-17T18:34:58.902Z,7.20
2024-04-17T18:35:58.881Z,7.19
2024-04-17T18:36:58.877Z,7.17
2024-04-17T18:37:58.892Z,7.24
2024-04-17T18:38:59.165Z,7.26
2024-04-17T18:39:58.851Z,7.38
2024-04-17T18:40:58.838Z,7.32
2024-04-17T18:41:58.832Z,7.41
2024-04-17T18:42:58.844Z,7.38
2024-04-17T18:43:58.821Z,7.35
2024-04-17T18:44:58.846Z,7.29
2024-04-17T18:45:58.806Z,7.31
2024-04-17T18:46:58.801Z,7.37
2024-04-17T18:47:58.848Z,7.38
2024-04-17T18:48:58.858Z,7.37
2024-04-17T18:49:58.837Z,7.32
2024-04-17T18:50:58.789Z,7.35
2024-04-17T18:51:58.762Z,7.34
2024-04-17T18:52:58.760Z,7.35
2024-04-17T18:53:58.755Z,7.34
2024-04-17T18:54:58.776Z,7.16
2024-04-17T18:55:58.770Z,7.24
2024-04-17T18:56:58.739Z,7.26
2024-04-17T18:57:58.728Z,7.08
2024-04-17T18:58:58.728Z,7.07
2024-04-17T18:59:58.716Z,6.98
2024-04-17T19:00:58.735Z,6.95
2024-04-17T19:01:58.729Z,6.97
2024-04-17T19:02:58.699Z,6.80
2024-04-17T19:03:58.877Z,6.80
2024-04-17T19:04:58.686Z,6.84
2024-04-17T19:05:58.690Z,6.81
2024-04-17T19:06:58.688Z,6.66
2024-04-17T19:07:58.670Z,6.73
2024-04-17T19:08:58.753Z,6.69
2024-04-17T19:09:58.638Z,6.71
2024-04-17T19:10:58.646Z,6.66
2024-04-17T19:11:58.663Z,6.72
2024-04-17T19:12:58.628Z,6.53
2024-04-17T19:13:58.644Z,6.53
2024-04-17T19:14:58.623Z,6.56
2024-04-17T19:15:59.164Z,6.43
2024-04-17T19:16:58.607Z,6.40
2024-04-17T19:17:58.593Z,6.35
2024-04-17T19:18:58.743Z,6.44
2024-04-17T19:19:58.619Z,6.36
2024-04-17T19:20:58.569Z,6.33
2024-04-17T19:21:58.626Z,6.40
2024-04-17T19:22:58.563Z,6.43
2024-04-17T19:23:58.555Z,6.58
2024-04-17T19:24:58.547Z,6.59
2024-04-17T19:25:58.538Z,6.63
2024-04-17T19:26:58.580Z,6.79
2024-04-17T19:27:58.538Z,6.77
2024-04-17T19:28:58.512Z,6.79
2024-04-17T19:30:05.575Z,6.87
2024-04-17T19:31:00.673Z,6.87
2024-04-17T19:31:58.550Z,6.80
2024-04-17T19:32:58.527Z,6.87
2024-04-17T19:33:58.635Z,6.89
2024-04-17T19:34:58.490Z,6.91
2024-04-17T19:35:58.486Z,7.02
2024-04-17T19:36:58.605Z,6.94
2024-04-17T19:37:58.475Z,6.90
2024-04-17T19:38:58.526Z,6.89
2024-04-17T19:39:58.464Z,7.01
2024-04-17T19:40:58.465Z,7.04
2024-04-17T19:42:01.180Z,6.95
2024-04-17T19:42:59.238Z,6.98
2024-04-17T19:43:58.437Z,6.99
2024-04-17T19:44:58.430Z,7.04
2024-04-17T19:45:58.421Z,7.15
2024-04-17T19:47:00.881Z,7.07
2024-04-17T19:47:59.540Z,7.13
2024-04-17T19:48:58.702Z,7.15
2024-04-17T19:49:58.398Z,7.07
2024-04-17T19:50:58.407Z,7.13
2024-04-17T19:51:58.375Z,7.05
2024-04-17T19:52:58.412Z,7.09
2024-04-17T19:53:58.367Z,7.07
2024-04-17T19:54:58.350Z,7.04
2024-04-17T19:55:58.344Z,6.97
2024-04-17T19:57:03.111Z,6.97
2024-04-17T19:58:00.383Z,6.94
2024-04-17T19:58:58.324Z,7.04
2024-04-17T19:59:58.321Z,7.05
2024-04-17T20:00:58.367Z,7.01
2024-04-17T20:01:58.325Z,7.04
2024-04-17T20:02:58.389Z,7.09
2024-04-17T20:03:58.356Z,7.04
2024-04-17T20:04:58.326Z,7.16
2024-04-17T20:05:58.274Z,6.97
2024-04-17T20:06:58.302Z,6.97
2024-04-17T20:07:58.270Z,6.84
2024-04-17T20:08:58.298Z,6.91
2024-04-17T20:09:58.259Z,6.90
2024-04-17T20:10:58.275Z,6.98
2024-04-17T20:11:58.263Z,6.90
2024-04-17T20:12:58.244Z,7.05
2024-04-17T20:13:58.236Z,6.94
2024-04-17T20:14:58.218Z,6.97
2024-04-17T20:15:58.213Z,7.04
2024-04-17T20:16:58.246Z,7.04
2024-04-17T20:17:58.259Z,7.01
2024-04-17T20:18:58.309Z,6.97
2024-04-17T20:19:58.191Z,6.84
2024-04-17T20:20:58.170Z,6.86
2024-04-17T20:21:58.176Z,6.81
2024-04-17T20:22:58.167Z,6.69
2024-04-17T20:23:58.195Z,6.83
2024-04-17T20:24:58.167Z,6.73
2024-04-17T20:25:58.164Z,6.80
2024-04-17T20:26:58.149Z,6.77
2024-04-17T20:27:58.139Z,6.84
2024-04-17T20:29:03.486Z,6.76
2024-04-17T20:29:59.126Z,6.81
2024-04-17T20:30:58.110Z,6.76
2024-04-17T20:31:58.103Z,6.77
2024-04-17T20:32:58.181Z,6.80
2024-04-17T20:33:58.096Z,6.69
2024-04-17T20:34:58.109Z,6.71
2024-04-17T20:35:58.078Z,6.76
2024-04-17T20:36:58.124Z,6.63
2024-04-17T20:37:58.073Z,6.62
2024-04-17T20:38:58.070Z,6.61
2024-04-17T20:40:02.154Z,6.56
2024-04-17T20:41:00.084Z,6.46
2024-04-17T20:41:58.040Z,6.53
2024-04-17T20:42:58.035Z,6.43
2024-04-17T20:43:58.020Z,6.40
2024-04-17T20:44:58.021Z,6.35
2024-04-17T20:45:58.020Z,6.40
2024-04-17T20:46:58.030Z,6.38
2024-04-17T20:47:58.047Z,6.41
2024-04-17T20:48:58.145Z,6.41
2024-04-17T20:49:57.998Z,6.47
2024-04-17T20:50:58.019Z,6.38
2024-04-17T20:51:58.018Z,6.47
2024-04-17T20:52:57.965Z,6.56
2024-04-17T20:53:57.949Z,6.50
2024-04-17T20:54:57.946Z,6.63
2024-04-17T20:55:57.989Z,6.53
2024-04-17T20:56:57.942Z,6.61
2024-04-17T20:57:57.940Z,6.59
2024-04-17T20:58:57.917Z,6.62
2024-04-17T20:59:57.912Z,6.58
2024-04-17T21:00:58.092Z,6.61
2024-04-17T21:01:57.913Z,6.59
2024-04-17T21:02:57.905Z,6.58
2024-04-17T21:03:57.975Z,6.66
2024-04-17T21:04:57.905Z,6.69
2024-04-17T21:05:57.943Z,6.61
2024-04-17T21:06:57.908Z,6.59
2024-04-17T21:07:57.859Z,6.65
2024-04-17T21:08:57.862Z,6.66
2024-04-17T21:09:57.857Z,6.68
2024-04-17T21:10:57.913Z,6.63
2024-04-17T21:11:57.843Z,6.66
2024-04-17T21:12:58.025Z,6.62
2024-04-17T21:13:57.820Z,6.62
2024-04-17T21:14:57.816Z,6.61
2024-04-17T21:15:57.823Z,6.66
2024-04-17T21:16:57.822Z,6.58
2024-04-17T21:17:57.945Z,6.56
2024-04-17T21:18:57.872Z,6.53
2024-04-17T21:19:57.804Z,6.63
2024-04-17T21:20:57.802Z,6.62
2024-04-17T21:21:57.805Z,6.61
2024-04-17T21:22:57.825Z,6.66
2024-04-17T21:23:57.784Z,6.69
2024-04-17T21:24:57.765Z,6.66
2024-04-17T21:25:57.763Z,6.68
2024-04-17T21:26:57.739Z,6.69
2024-04-17T21:27:57.751Z,6.73
2024-04-17T21:28:57.741Z,6.73
2024-04-17T21:29:57.719Z,6.65
2024-04-17T21:30:58.494Z,6.76
2024-04-17T21:31:57.721Z,6.73
2024-04-17T21:32:57.808Z,6.72
2024-04-17T21:33:57.719Z,6.69
2024-04-17T21:34:57.683Z,6.77
2024-04-17T21:35:58.682Z,6.80
2024-04-17T21:36:57.676Z,6.81
2024-04-17T21:37:57.694Z,6.84
2024-04-17T21:38:57.658Z,6.80
2024-04-17T21:39:57.657Z,6.81
2024-04-17T21:40:57.659Z,6.87
2024-04-17T21:41:57.687Z,6.73
2024-04-17T21:42:57.646Z,6.84
2024-04-17T21:43:57.648Z,6.79
2024-04-17T21:44:57.626Z,6.69
2024-04-17T21:45:57.613Z,6.80
2024-04-17T21:46:57.725Z,6.76
2024-04-17T21:47:57.732Z,6.79
2024-04-17T21:48:57.621Z,6.80
2024-04-17T21:49:57.600Z,6.76
2024-04-17T21:50:57.597Z,6.73
2024-04-17T21:51:57.569Z,6.69
2024-04-17T21:52:57.590Z,6.87
2024-04-17T21:53:57.621Z,6.86
2024-04-17T21:54:57.552Z,6.81
2024-04-17T21:55:57.554Z,6.80
2024-04-17T21:56:57.537Z,6.86
2024-04-17T21:57:58.531Z,6.83
2024-04-17T21:58:57.541Z,6.84
2024-04-17T21:59:57.538Z,6.73
2024-04-17T22:00:58.550Z,6.73
2024-04-17T22:01:57.507Z,6.83
2024-04-17T22:02:57.586Z,6.81
2024-04-17T22:03:57.552Z,6.83
2024-04-17T22:04:57.561Z,6.84
2024-04-17T22:05:59.893Z,6.73
2024-04-17T22:06:58.480Z,6.86
2024-04-17T22:07:58.153Z,6.79
2024-04-17T22:08:57.465Z,6.86
2024-04-17T22:09:57.470Z,6.84
2024-04-17T22:10:57.469Z,6.76
2024-04-17T22:11:57.487Z,6.72
2024-04-17T22:12:57.444Z,6.79
2024-04-17T22:13:57.421Z,6.81
2024-04-17T22:14:57.423Z,6.71
2024-04-17T22:15:57.453Z,6.72
2024-04-17T22:16:57.444Z,6.68
2024-04-17T22:17:57.470Z,6.68
2024-04-17T22:18:57.416Z,6.69
2024-04-17T22:19:57.389Z,6.61
2024-04-17T22:20:57.471Z,6.68
2024-04-17T22:21:57.368Z,6.53
2024-04-17T22:22:58.056Z,6.66
2024-04-17T22:23:57.362Z,6.62
2024-04-17T22:24:57.357Z,6.72
2024-04-17T22:25:57.370Z,6.54
2024-04-17T22:26:57.351Z,6.69
2024-04-17T22:27:57.334Z,6.68
2024-04-17T22:28:57.328Z,6.73
2024-04-17T22:29:57.325Z,6.71
2024-04-17T22:30:57.336Z,6.66
2024-04-17T22:31:57.309Z,6.65
2024-04-17T22:32:57.435Z,6.72
2024-04-17T22:33:57.377Z,6.66
2024-04-17T22:34:57.311Z,6.68
2024-04-17T22:35:57.282Z,6.66
2024-04-17T22:36:57.295Z,6.69
2024-04-17T22:37:57.297Z,6.65
2024-04-17T22:38:57.258Z,6.65
2024-04-17T22:39:57.282Z,6.59
2024-04-17T22:40:57.252Z,6.58
2024-04-17T22:41:57.250Z,6.62
2024-04-17T22:42:57.313Z,6.46
2024-04-17T22:43:57.263Z,6.41
2024-04-17T22:44:57.224Z,6.43
2024-04-17T22:45:57.226Z,6.33
2024-04-17T22:46:57.263Z,6.44
2024-04-17T22:47:57.350Z,6.43
2024-04-17T22:48:57.235Z,6.36
2024-04-17T22:49:57.199Z,6.30
2024-04-17T22:50:57.195Z,6.36
2024-04-17T22:51:57.172Z,6.38
2024-04-17T22:52:57.210Z,6.40
2024-04-17T22:53:57.162Z,6.28
2024-04-17T22:54:57.166Z,6.33
2024-04-17T22:55:57.148Z,6.29
2024-04-17T22:56:59.720Z,6.32
2024-04-17T22:57:58.163Z,6.38
2024-04-17T22:58:57.132Z,6.35
2024-04-17T22:59:57.131Z,6.36
2024-04-17T23:00:57.174Z,6.33
2024-04-17T23:01:57.104Z,6.38
2024-04-17T23:02:57.141Z,6.41
2024-04-17T23:03:57.211Z,6.43
2024-04-17T23:04:57.193Z,6.46
2024-04-17T23:05:57.105Z,6.41
2024-04-17T23:06:57.080Z,6.38
2024-04-17T23:07:57.079Z,6.43
2024-04-17T23:08:57.072Z,6.51
2024-04-17T23:09:57.060Z,6.41
2024-04-17T23:10:57.156Z,6.44
2024-04-17T23:11:57.048Z,6.47
2024-04-17T23:12:57.080Z,6.32
2024-04-17T23:13:57.039Z,6.32
2024-04-17T23:14:57.031Z,6.33
2024-04-17T23:15:57.042Z,6.26
2024-04-17T23:16:57.003Z,6.29
2024-04-17T23:17:57.040Z,6.32
2024-04-17T23:19:02.502Z,6.35
2024-04-17T23:19:58.023Z,6.35
2024-04-17T23:20:56.998Z,6.47
2024-04-17T23:21:56.981Z,6.43
2024-04-17T23:22:56.971Z,6.33
2024-04-17T23:23:56.968Z,6.35
2024-04-17T23:24:56.962Z,6.38
2024-04-17T23:25:56.966Z,6.36
2024-04-17T23:26:56.952Z,6.38
2024-04-17T23:27:56.940Z,6.46
2024-04-17T23:28:56.921Z,6.44
2024-04-17T23:29:56.924Z,6.47
2024-04-17T23:30:56.929Z,6.48
2024-04-17T23:31:56.939Z,6.53
2024-04-17T23:32:56.966Z,6.47
2024-04-17T23:33:56.929Z,6.44
2024-04-17T23:34:56.892Z,6.51
2024-04-17T23:35:56.885Z,6.48
2024-04-17T23:36:56.894Z,6.61
2024-04-17T23:37:56.870Z,6.50
2024-04-17T23:38:56.875Z,6.47
2024-04-17T23:39:56.892Z,6.53
2024-04-17T23:40:56.866Z,6.46
2024-04-17T23:41:56.874Z,6.53
2024-04-17T23:42:56.846Z,6.50
2024-04-17T23:43:56.830Z,6.50
2024-04-17T23:44:56.939Z,6.46
2024-04-17T23:45:56.833Z,6.53
2024-04-17T23:46:56.845Z,6.54
2024-04-17T23:47:56.880Z,6.53
2024-04-17T23:48:56.805Z,6.58
2024-04-17T23:49:57.213Z,6.50
2024-04-17T23:50:56.794Z,6.54
2024-04-17T23:51:56.782Z,6.50
2024-04-17T23:52:56.774Z,6.50
2024-04-17T23:53:56.773Z,6.56
2024-04-17T23:54:56.773Z,6.50
2024-04-17T23:55:56.768Z,6.46
2024-04-17T23:56:56.765Z,6.59
2024-04-17T23:57:56.730Z,6.53
2024-04-17T23:58:56.731Z,6.56
2024-04-17T23:59:56.738Z,6.58
